sensor_id;sensor_type;location;lat;lon;timestamp;P1;durP1;ratioP1;P2;durP2;ratioP2
45254;SDS011;30989;52.078;21.014;2023-04-01T00:00:17;19.30;;;8.88;;
45254;SDS011;30989;52.078;21.014;2023-04-01T00:02:43;18.63;;;7.43;;
45254;SDS011;30989;52.078;21.014;2023-04-01T00:05:09;13.80;;;6.60;;
45254;SDS011;30989;52.078;21.014;2023-04-01T00:07:35;13.93;;;6.45;;
45254;SDS011;30989;52.078;21.014;2023-04-01T00:10:02;14.50;;;6.53;;
45254;SDS011;30989;52.078;21.014;2023-04-01T00:12:28;13.77;;;6.40;;
45254;SDS011;30989;52.078;21.014;2023-04-01T00:14:54;19.85;;;7.53;;
45254;SDS011;30989;52.078;21.014;2023-04-01T00:17:20;18.60;;;6.85;;
45254;SDS011;30989;52.078;21.014;2023-04-01T00:19:46;13.57;;;7.32;;
45254;SDS011;30989;52.078;21.014;2023-04-01T00:22:12;11.65;;;6.55;;
45254;SDS011;30989;52.078;21.014;2023-04-01T00:24:37;13.07;;;5.75;;
45254;SDS011;30989;52.078;21.014;2023-04-01T00:27:03;16.85;;;6.68;;
45254;SDS011;30989;52.078;21.014;2023-04-01T00:29:29;17.67;;;7.97;;
45254;SDS011;30989;52.078;21.014;2023-04-01T00:31:56;17.77;;;7.15;;
45254;SDS011;30989;52.078;21.014;2023-04-01T00:34:22;16.25;;;8.27;;
45254;SDS011;30989;52.078;21.014;2023-04-01T00:36:49;15.73;;;6.47;;
45254;SDS011;30989;52.078;21.014;2023-04-01T00:39:22;13.55;;;6.50;;
45254;SDS011;30989;52.078;21.014;2023-04-01T00:41:47;18.85;;;7.90;;
45254;SDS011;30989;52.078;21.014;2023-04-01T00:44:18;16.17;;;7.60;;
45254;SDS011;30989;52.078;21.014;2023-04-01T00:46:44;14.93;;;6.87;;
45254;SDS011;30989;52.078;21.014;2023-04-01T00:49:10;15.50;;;6.90;;
45254;SDS011;30989;52.078;21.014;2023-04-01T00:51:35;21.38;;;7.13;;
45254;SDS011;30989;52.078;21.014;2023-04-01T00:54:03;12.73;;;6.47;;
45254;SDS011;30989;52.078;21.014;2023-04-01T00:56:32;13.93;;;6.72;;
45254;SDS011;30989;52.078;21.014;2023-04-01T00:59:02;14.70;;;7.20;;
45254;SDS011;30989;52.078;21.014;2023-04-01T01:01:33;16.38;;;7.63;;
45254;SDS011;30989;52.078;21.014;2023-04-01T01:04:00;30.55;;;7.22;;
45254;SDS011;30989;52.078;21.014;2023-04-01T01:09:18;13.93;;;6.75;;
45254;SDS011;30989;52.078;21.014;2023-04-01T01:14:42;14.80;;;6.70;;
45254;SDS011;30989;52.078;21.014;2023-04-01T01:19:57;15.30;;;7.10;;
45254;SDS011;30989;52.078;21.014;2023-04-01T01:28:26;15.35;;;6.70;;
45254;SDS011;30989;52.078;21.014;2023-04-01T01:30:57;17.42;;;7.55;;
45254;SDS011;30989;52.078;21.014;2023-04-01T01:33:41;17.17;;;7.20;;
45254;SDS011;30989;52.078;21.014;2023-04-01T01:36:16;17.98;;;7.00;;
45254;SDS011;30989;52.078;21.014;2023-04-01T01:38:44;18.52;;;8.27;;
45254;SDS011;30989;52.078;21.014;2023-04-01T01:41:11;13.18;;;6.60;;
45254;SDS011;30989;52.078;21.014;2023-04-01T01:43:42;19.98;;;8.43;;
45254;SDS011;30989;52.078;21.014;2023-04-01T01:46:14;18.67;;;7.35;;
45254;SDS011;30989;52.078;21.014;2023-04-01T01:48:44;13.85;;;7.35;;
45254;SDS011;30989;52.078;21.014;2023-04-01T01:51:12;16.15;;;7.80;;
45254;SDS011;30989;52.078;21.014;2023-04-01T01:53:37;16.95;;;8.93;;
45254;SDS011;30989;52.078;21.014;2023-04-01T01:56:03;17.52;;;8.13;;
45254;SDS011;30989;52.078;21.014;2023-04-01T01:58:35;15.77;;;6.72;;
45254;SDS011;30989;52.078;21.014;2023-04-01T02:01:12;15.88;;;7.85;;
45254;SDS011;30989;52.078;21.014;2023-04-01T02:03:42;17.23;;;6.97;;
45254;SDS011;30989;52.078;21.014;2023-04-01T02:06:11;17.20;;;8.15;;
45254;SDS011;30989;52.078;21.014;2023-04-01T02:08:42;17.27;;;8.13;;
45254;SDS011;30989;52.078;21.014;2023-04-01T02:11:13;15.90;;;8.07;;
45254;SDS011;30989;52.078;21.014;2023-04-01T02:16:23;15.38;;;7.40;;
45254;SDS011;30989;52.078;21.014;2023-04-01T02:21:22;13.85;;;8.15;;
45254;SDS011;30989;52.078;21.014;2023-04-01T02:23:50;18.17;;;8.30;;
45254;SDS011;30989;52.078;21.014;2023-04-01T02:26:18;17.80;;;7.97;;
45254;SDS011;30989;52.078;21.014;2023-04-01T02:28:45;17.15;;;8.35;;
45254;SDS011;30989;52.078;21.014;2023-04-01T02:31:14;17.88;;;8.35;;
45254;SDS011;30989;52.078;21.014;2023-04-01T02:33:40;17.15;;;7.63;;
45254;SDS011;30989;52.078;21.014;2023-04-01T02:36:10;16.48;;;7.72;;
45254;SDS011;30989;52.078;21.014;2023-04-01T02:38:38;16.13;;;7.57;;
45254;SDS011;30989;52.078;21.014;2023-04-01T02:41:03;20.88;;;8.27;;
45254;SDS011;30989;52.078;21.014;2023-04-01T02:43:31;15.40;;;7.28;;
45254;SDS011;30989;52.078;21.014;2023-04-01T02:45:56;14.25;;;7.72;;
45254;SDS011;30989;52.078;21.014;2023-04-01T02:48:22;20.27;;;7.78;;
45254;SDS011;30989;52.078;21.014;2023-04-01T02:50:47;14.68;;;8.02;;
45254;SDS011;30989;52.078;21.014;2023-04-01T02:53:13;16.73;;;7.53;;
45254;SDS011;30989;52.078;21.014;2023-04-01T02:55:39;20.30;;;7.65;;
45254;SDS011;30989;52.078;21.014;2023-04-01T02:58:04;15.85;;;7.65;;
45254;SDS011;30989;52.078;21.014;2023-04-01T03:00:30;19.80;;;9.00;;
45254;SDS011;30989;52.078;21.014;2023-04-01T03:02:56;16.45;;;7.78;;
45254;SDS011;30989;52.078;21.014;2023-04-01T03:05:22;17.15;;;8.88;;
45254;SDS011;30989;52.078;21.014;2023-04-01T03:07:48;19.42;;;8.35;;
45254;SDS011;30989;52.078;21.014;2023-04-01T03:10:13;12.43;;;7.45;;
45254;SDS011;30989;52.078;21.014;2023-04-01T03:12:40;14.60;;;7.78;;
45254;SDS011;30989;52.078;21.014;2023-04-01T03:15:05;16.20;;;9.02;;
45254;SDS011;30989;52.078;21.014;2023-04-01T03:17:31;18.52;;;8.38;;
45254;SDS011;30989;52.078;21.014;2023-04-01T03:19:57;13.52;;;7.18;;
45254;SDS011;30989;52.078;21.014;2023-04-01T03:22:23;16.35;;;8.55;;
45254;SDS011;30989;52.078;21.014;2023-04-01T03:24:48;16.52;;;8.90;;
45254;SDS011;30989;52.078;21.014;2023-04-01T03:27:15;14.13;;;7.93;;
45254;SDS011;30989;52.078;21.014;2023-04-01T03:29:41;16.92;;;8.65;;
45254;SDS011;30989;52.078;21.014;2023-04-01T03:32:07;17.52;;;8.65;;
45254;SDS011;30989;52.078;21.014;2023-04-01T03:34:32;13.05;;;7.72;;
45254;SDS011;30989;52.078;21.014;2023-04-01T03:36:58;19.20;;;9.05;;
45254;SDS011;30989;52.078;21.014;2023-04-01T03:39:24;18.35;;;9.43;;
45254;SDS011;30989;52.078;21.014;2023-04-01T03:41:50;20.67;;;9.00;;
45254;SDS011;30989;52.078;21.014;2023-04-01T03:44:16;22.13;;;9.45;;
45254;SDS011;30989;52.078;21.014;2023-04-01T03:46:44;19.58;;;9.32;;
45254;SDS011;30989;52.078;21.014;2023-04-01T03:49:09;19.35;;;8.63;;
45254;SDS011;30989;52.078;21.014;2023-04-01T03:51:40;15.68;;;9.00;;
45254;SDS011;30989;52.078;21.014;2023-04-01T03:54:07;23.55;;;10.05;;
45254;SDS011;30989;52.078;21.014;2023-04-01T03:56:34;21.55;;;9.65;;
45254;SDS011;30989;52.078;21.014;2023-04-01T03:59:03;20.23;;;10.73;;
45254;SDS011;30989;52.078;21.014;2023-04-01T04:01:30;21.38;;;10.48;;
45254;SDS011;30989;52.078;21.014;2023-04-01T04:03:56;22.88;;;9.65;;
45254;SDS011;30989;52.078;21.014;2023-04-01T04:06:23;19.40;;;10.15;;
45254;SDS011;30989;52.078;21.014;2023-04-01T04:08:50;22.98;;;11.50;;
45254;SDS011;30989;52.078;21.014;2023-04-01T04:11:16;19.90;;;9.40;;
45254;SDS011;30989;52.078;21.014;2023-04-01T04:13:43;21.98;;;10.85;;
45254;SDS011;30989;52.078;21.014;2023-04-01T04:16:09;23.40;;;11.95;;
45254;SDS011;30989;52.078;21.014;2023-04-01T04:18:38;18.73;;;9.77;;
45254;SDS011;30989;52.078;21.014;2023-04-01T04:21:04;19.55;;;9.50;;
45254;SDS011;30989;52.078;21.014;2023-04-01T04:23:30;25.65;;;12.07;;
45254;SDS011;30989;52.078;21.014;2023-04-01T04:28:26;23.60;;;11.30;;
45254;SDS011;30989;52.078;21.014;2023-04-01T04:30:53;24.00;;;12.02;;
45254;SDS011;30989;52.078;21.014;2023-04-01T04:33:19;20.85;;;10.82;;
45254;SDS011;30989;52.078;21.014;2023-04-01T04:35:44;18.85;;;10.93;;
45254;SDS011;30989;52.078;21.014;2023-04-01T04:38:10;19.63;;;12.07;;
45254;SDS011;30989;52.078;21.014;2023-04-01T04:40:39;19.00;;;10.85;;
45254;SDS011;30989;52.078;21.014;2023-04-01T04:43:10;27.40;;;12.45;;
45254;SDS011;30989;52.078;21.014;2023-04-01T04:45:36;22.45;;;10.70;;
45254;SDS011;30989;52.078;21.014;2023-04-01T04:48:02;22.38;;;10.63;;
45254;SDS011;30989;52.078;21.014;2023-04-01T04:50:28;22.00;;;11.77;;
45254;SDS011;30989;52.078;21.014;2023-04-01T04:52:54;21.48;;;12.13;;
45254;SDS011;30989;52.078;21.014;2023-04-01T04:55:20;20.90;;;12.18;;
45254;SDS011;30989;52.078;21.014;2023-04-01T04:57:52;25.10;;;12.55;;
45254;SDS011;30989;52.078;21.014;2023-04-01T05:00:18;21.13;;;11.32;;
45254;SDS011;30989;52.078;21.014;2023-04-01T05:02:52;24.13;;;11.82;;
45254;SDS011;30989;52.078;21.014;2023-04-01T05:05:18;15.65;;;9.32;;
45254;SDS011;30989;52.078;21.014;2023-04-01T05:07:44;21.77;;;10.45;;
45254;SDS011;30989;52.078;21.014;2023-04-01T05:10:09;22.33;;;10.93;;
45254;SDS011;30989;52.078;21.014;2023-04-01T05:12:35;19.02;;;9.73;;
45254;SDS011;30989;52.078;21.014;2023-04-01T05:15:06;35.05;;;16.48;;
45254;SDS011;30989;52.078;21.014;2023-04-01T05:17:32;25.40;;;12.85;;
45254;SDS011;30989;52.078;21.014;2023-04-01T05:19:59;20.50;;;10.10;;
45254;SDS011;30989;52.078;21.014;2023-04-01T05:22:25;18.58;;;9.75;;
45254;SDS011;30989;52.078;21.014;2023-04-01T05:24:51;17.10;;;9.00;;
45254;SDS011;30989;52.078;21.014;2023-04-01T05:27:17;16.30;;;8.93;;
45254;SDS011;30989;52.078;21.014;2023-04-01T05:29:43;13.75;;;7.78;;
45254;SDS011;30989;52.078;21.014;2023-04-01T05:32:24;16.73;;;9.00;;
45254;SDS011;30989;52.078;21.014;2023-04-01T05:34:50;15.70;;;8.15;;
45254;SDS011;30989;52.078;21.014;2023-04-01T05:37:16;16.23;;;9.07;;
45254;SDS011;30989;52.078;21.014;2023-04-01T05:39:42;16.58;;;8.95;;
45254;SDS011;30989;52.078;21.014;2023-04-01T05:42:08;16.63;;;9.10;;
45254;SDS011;30989;52.078;21.014;2023-04-01T05:44:34;15.77;;;8.48;;
45254;SDS011;30989;52.078;21.014;2023-04-01T05:47:00;16.52;;;10.02;;
45254;SDS011;30989;52.078;21.014;2023-04-01T05:49:26;17.33;;;9.95;;
45254;SDS011;30989;52.078;21.014;2023-04-01T05:51:52;18.50;;;9.50;;
45254;SDS011;30989;52.078;21.014;2023-04-01T05:54:17;19.25;;;9.52;;
45254;SDS011;30989;52.078;21.014;2023-04-01T05:56:44;16.55;;;9.48;;
45254;SDS011;30989;52.078;21.014;2023-04-01T05:59:10;19.48;;;10.07;;
45254;SDS011;30989;52.078;21.014;2023-04-01T06:01:36;19.98;;;10.25;;
45254;SDS011;30989;52.078;21.014;2023-04-01T06:04:02;19.65;;;10.27;;
45254;SDS011;30989;52.078;21.014;2023-04-01T06:06:28;21.48;;;11.32;;
45254;SDS011;30989;52.078;21.014;2023-04-01T06:09:07;24.77;;;9.98;;
45254;SDS011;30989;52.078;21.014;2023-04-01T06:11:46;28.45;;;13.23;;
45254;SDS011;30989;52.078;21.014;2023-04-01T06:14:28;20.02;;;11.70;;
45254;SDS011;30989;52.078;21.014;2023-04-01T06:19:49;22.70;;;12.45;;
45254;SDS011;30989;52.078;21.014;2023-04-01T06:24:55;21.35;;;11.27;;
45254;SDS011;30989;52.078;21.014;2023-04-01T06:33:09;20.23;;;10.40;;
45254;SDS011;30989;52.078;21.014;2023-04-01T06:35:55;23.50;;;11.85;;
45254;SDS011;30989;52.078;21.014;2023-04-01T06:38:40;17.60;;;11.52;;
45254;SDS011;30989;52.078;21.014;2023-04-01T06:44:23;24.50;;;11.50;;
45254;SDS011;30989;52.078;21.014;2023-04-01T06:47:23;25.17;;;12.10;;
45254;SDS011;30989;52.078;21.014;2023-04-01T06:50:18;22.60;;;11.88;;
45254;SDS011;30989;52.078;21.014;2023-04-01T06:53:12;18.92;;;10.52;;
45254;SDS011;30989;52.078;21.014;2023-04-01T06:56:27;21.58;;;10.52;;
45254;SDS011;30989;52.078;21.014;2023-04-01T06:59:05;20.88;;;11.82;;
45254;SDS011;30989;52.078;21.014;2023-04-01T07:01:38;19.60;;;11.07;;
45254;SDS011;30989;52.078;21.014;2023-04-01T07:04:14;19.20;;;10.93;;
45254;SDS011;30989;52.078;21.014;2023-04-01T07:06:48;18.92;;;11.30;;
45254;SDS011;30989;52.078;21.014;2023-04-01T07:09:19;17.77;;;10.13;;
45254;SDS011;30989;52.078;21.014;2023-04-01T07:15:01;15.10;;;8.25;;
45254;SDS011;30989;52.078;21.014;2023-04-01T07:17:37;15.18;;;9.35;;
45254;SDS011;30989;52.078;21.014;2023-04-01T07:20:25;17.30;;;10.20;;
45254;SDS011;30989;52.078;21.014;2023-04-01T07:22:56;18.23;;;10.43;;
45254;SDS011;30989;52.078;21.014;2023-04-01T07:25:34;17.50;;;10.40;;
45254;SDS011;30989;52.078;21.014;2023-04-01T07:28:32;16.35;;;9.38;;
45254;SDS011;30989;52.078;21.014;2023-04-01T07:34:23;15.70;;;9.40;;
45254;SDS011;30989;52.078;21.014;2023-04-01T07:39:56;13.70;;;8.02;;
45254;SDS011;30989;52.078;21.014;2023-04-01T07:48:17;17.05;;;9.52;;
45254;SDS011;30989;52.078;21.014;2023-04-01T07:50:55;15.52;;;8.70;;
45254;SDS011;30989;52.078;21.014;2023-04-01T07:53:38;17.20;;;10.10;;
45254;SDS011;30989;52.078;21.014;2023-04-01T08:02:00;14.02;;;8.60;;
45254;SDS011;30989;52.078;21.014;2023-04-01T08:07:13;17.02;;;8.95;;
45254;SDS011;30989;52.078;21.014;2023-04-01T08:13:31;15.95;;;9.13;;
45254;SDS011;30989;52.078;21.014;2023-04-01T08:22:26;13.52;;;8.38;;
45254;SDS011;30989;52.078;21.014;2023-04-01T08:24:58;15.57;;;8.30;;
45254;SDS011;30989;52.078;21.014;2023-04-01T08:27:30;13.05;;;8.60;;
45254;SDS011;30989;52.078;21.014;2023-04-01T08:30:43;15.63;;;8.63;;
45254;SDS011;30989;52.078;21.014;2023-04-01T08:36:02;13.07;;;8.05;;
45254;SDS011;30989;52.078;21.014;2023-04-01T08:47:48;15.10;;;8.27;;
45254;SDS011;30989;52.078;21.014;2023-04-01T08:59:36;10.65;;;7.05;;
45254;SDS011;30989;52.078;21.014;2023-04-01T09:02:56;10.30;;;6.70;;
45254;SDS011;30989;52.078;21.014;2023-04-01T09:11:27;14.60;;;7.55;;
45254;SDS011;30989;52.078;21.014;2023-04-01T09:20:44;10.73;;;7.10;;
45254;SDS011;30989;52.078;21.014;2023-04-01T09:37:18;18.38;;;9.13;;
45254;SDS011;30989;52.078;21.014;2023-04-01T09:39:55;17.10;;;8.45;;
45254;SDS011;30989;52.078;21.014;2023-04-01T09:42:49;13.75;;;7.55;;
45254;SDS011;30989;52.078;21.014;2023-04-01T09:56:33;17.05;;;8.45;;
45254;SDS011;30989;52.078;21.014;2023-04-01T10:08:36;17.42;;;9.90;;
45254;SDS011;30989;52.078;21.014;2023-04-01T10:11:42;9.32;;;4.88;;
45254;SDS011;30989;52.078;21.014;2023-04-01T10:14:37;9.02;;;4.15;;
45254;SDS011;30989;52.078;21.014;2023-04-01T10:17:15;7.25;;;3.55;;
45254;SDS011;30989;52.078;21.014;2023-04-01T10:28:22;5.75;;;2.95;;
45254;SDS011;30989;52.078;21.014;2023-04-01T10:37:26;13.25;;;7.30;;
45254;SDS011;30989;52.078;21.014;2023-04-01T10:48:59;3.95;;;2.00;;
45254;SDS011;30989;52.078;21.014;2023-04-01T10:52:00;4.05;;;2.17;;
45254;SDS011;30989;52.078;21.014;2023-04-01T10:55:04;3.08;;;1.98;;
45254;SDS011;30989;52.078;21.014;2023-04-01T11:10:47;3.88;;;2.28;;
45254;SDS011;30989;52.078;21.014;2023-04-01T11:21:50;5.30;;;2.63;;
45254;SDS011;30989;52.078;21.014;2023-04-01T11:27:38;4.47;;;2.60;;
45254;SDS011;30989;52.078;21.014;2023-04-01T11:30:11;7.80;;;3.30;;
45254;SDS011;30989;52.078;21.014;2023-04-01T11:35:55;4.78;;;2.80;;
45254;SDS011;30989;52.078;21.014;2023-04-01T11:38:52;4.72;;;2.53;;
45254;SDS011;30989;52.078;21.014;2023-04-01T11:41:47;4.95;;;2.83;;
45254;SDS011;30989;52.078;21.014;2023-04-01T11:44:58;16.95;;;8.93;;
45254;SDS011;30989;52.078;21.014;2023-04-01T11:47:45;6.80;;;3.00;;
45254;SDS011;30989;52.078;21.014;2023-04-01T11:53:00;6.18;;;3.25;;
45254;SDS011;30989;52.078;21.014;2023-04-01T11:55:31;5.00;;;2.42;;
45254;SDS011;30989;52.078;21.014;2023-04-01T12:06:05;8.18;;;2.70;;
45254;SDS011;30989;52.078;21.014;2023-04-01T12:14:26;3.80;;;2.20;;
45254;SDS011;30989;52.078;21.014;2023-04-01T12:19:51;4.75;;;2.30;;
45254;SDS011;30989;52.078;21.014;2023-04-01T12:22:27;5.47;;;2.60;;
45254;SDS011;30989;52.078;21.014;2023-04-01T12:30:42;6.15;;;2.70;;
45254;SDS011;30989;52.078;21.014;2023-04-01T12:33:42;4.95;;;2.25;;
45254;SDS011;30989;52.078;21.014;2023-04-01T12:39:17;6.45;;;1.92;;
45254;SDS011;30989;52.078;21.014;2023-04-01T12:47:54;5.88;;;3.20;;
45254;SDS011;30989;52.078;21.014;2023-04-01T12:50:40;4.53;;;2.40;;
45254;SDS011;30989;52.078;21.014;2023-04-01T12:56:15;2.60;;;1.30;;
45254;SDS011;30989;52.078;21.014;2023-04-01T12:58:57;4.07;;;1.63;;
45254;SDS011;30989;52.078;21.014;2023-04-01T13:01:27;4.38;;;2.03;;
45254;SDS011;30989;52.078;21.014;2023-04-01T13:18:12;4.68;;;2.28;;
45254;SDS011;30989;52.078;21.014;2023-04-01T13:37:52;8.82;;;4.93;;
45254;SDS011;30989;52.078;21.014;2023-04-01T13:40:33;6.00;;;3.20;;
45254;SDS011;30989;52.078;21.014;2023-04-01T13:43:04;5.72;;;3.17;;
45254;SDS011;30989;52.078;21.014;2023-04-01T13:48:24;5.28;;;3.20;;
45254;SDS011;30989;52.078;21.014;2023-04-01T13:57:07;8.57;;;3.17;;
45254;SDS011;30989;52.078;21.014;2023-04-01T14:13:26;5.43;;;3.38;;
45254;SDS011;30989;52.078;21.014;2023-04-01T14:18:56;5.28;;;2.90;;
45254;SDS011;30989;52.078;21.014;2023-04-01T14:21:46;5.55;;;2.42;;
45254;SDS011;30989;52.078;21.014;2023-04-01T14:27:01;3.15;;;1.75;;
45254;SDS011;30989;52.078;21.014;2023-04-01T14:29:56;2.70;;;1.70;;
45254;SDS011;30989;52.078;21.014;2023-04-01T14:32:39;4.28;;;2.30;;
45254;SDS011;30989;52.078;21.014;2023-04-01T14:55:02;6.03;;;2.80;;
45254;SDS011;30989;52.078;21.014;2023-04-01T14:57:57;4.43;;;2.55;;
45254;SDS011;30989;52.078;21.014;2023-04-01T15:00:57;6.45;;;3.20;;
45254;SDS011;30989;52.078;21.014;2023-04-01T15:03:40;3.83;;;2.17;;
45254;SDS011;30989;52.078;21.014;2023-04-01T15:09:43;4.50;;;2.05;;
45254;SDS011;30989;52.078;21.014;2023-04-01T15:12:40;3.28;;;2.08;;
45254;SDS011;30989;52.078;21.014;2023-04-01T15:18:26;4.03;;;1.98;;
45254;SDS011;30989;52.078;21.014;2023-04-01T15:24:15;3.05;;;1.80;;
45254;SDS011;30989;52.078;21.014;2023-04-01T15:26:54;3.88;;;1.85;;
45254;SDS011;30989;52.078;21.014;2023-04-01T15:43:43;3.25;;;1.20;;
45254;SDS011;30989;52.078;21.014;2023-04-01T15:49:09;1.95;;;1.00;;
45254;SDS011;30989;52.078;21.014;2023-04-01T15:51:54;1.85;;;1.10;;
45254;SDS011;30989;52.078;21.014;2023-04-01T16:00:09;5.75;;;1.42;;
45254;SDS011;30989;52.078;21.014;2023-04-01T16:11:10;7.85;;;1.55;;
45254;SDS011;30989;52.078;21.014;2023-04-01T16:14:06;2.50;;;1.08;;
45254;SDS011;30989;52.078;21.014;2023-04-01T16:16:52;3.08;;;1.30;;
45254;SDS011;30989;52.078;21.014;2023-04-01T16:19:38;4.55;;;1.30;;
45254;SDS011;30989;52.078;21.014;2023-04-01T16:22:32;10.50;;;1.90;;
45254;SDS011;30989;52.078;21.014;2023-04-01T16:28:12;3.88;;;2.20;;
45254;SDS011;30989;52.078;21.014;2023-04-01T16:30:48;11.15;;;1.88;;
45254;SDS011;30989;52.078;21.014;2023-04-01T16:38:26;3.60;;;1.58;;
45254;SDS011;30989;52.078;21.014;2023-04-01T16:43:45;3.47;;;1.60;;
45254;SDS011;30989;52.078;21.014;2023-04-01T16:46:32;3.92;;;1.60;;
45254;SDS011;30989;52.078;21.014;2023-04-01T16:51:53;4.35;;;1.83;;
45254;SDS011;30989;52.078;21.014;2023-04-01T16:57:21;3.53;;;1.52;;
45254;SDS011;30989;52.078;21.014;2023-04-01T17:00:02;5.40;;;3.10;;
45254;SDS011;30989;52.078;21.014;2023-04-01T17:03:03;8.57;;;3.03;;
45254;SDS011;30989;52.078;21.014;2023-04-01T17:05:42;7.55;;;2.08;;
45254;SDS011;30989;52.078;21.014;2023-04-01T17:10:50;3.05;;;1.40;;
45254;SDS011;30989;52.078;21.014;2023-04-01T17:13:35;3.40;;;1.20;;
45254;SDS011;30989;52.078;21.014;2023-04-01T17:19:04;2.90;;;1.05;;
45254;SDS011;30989;52.078;21.014;2023-04-01T17:21:49;2.88;;;1.50;;
45254;SDS011;30989;52.078;21.014;2023-04-01T17:27:18;3.53;;;1.25;;
45254;SDS011;30989;52.078;21.014;2023-04-01T17:38:46;4.00;;;1.40;;
45254;SDS011;30989;52.078;21.014;2023-04-01T17:41:31;3.25;;;1.42;;
45254;SDS011;30989;52.078;21.014;2023-04-01T17:49:32;2.20;;;1.05;;
45254;SDS011;30989;52.078;21.014;2023-04-01T17:55:22;3.13;;;1.42;;
45254;SDS011;30989;52.078;21.014;2023-04-01T18:17:04;4.78;;;2.40;;
45254;SDS011;30989;52.078;21.014;2023-04-01T18:22:41;3.63;;;1.50;;
45254;SDS011;30989;52.078;21.014;2023-04-01T18:27:43;4.93;;;2.10;;
45254;SDS011;30989;52.078;21.014;2023-04-01T18:30:15;3.80;;;1.65;;
45254;SDS011;30989;52.078;21.014;2023-04-01T18:35:29;3.80;;;2.00;;
45254;SDS011;30989;52.078;21.014;2023-04-01T18:38:29;6.70;;;3.05;;
45254;SDS011;30989;52.078;21.014;2023-04-01T18:46:55;8.23;;;4.90;;
45254;SDS011;30989;52.078;21.014;2023-04-01T18:49:39;8.48;;;4.75;;
45254;SDS011;30989;52.078;21.014;2023-04-01T18:52:24;10.05;;;5.15;;
45254;SDS011;30989;52.078;21.014;2023-04-01T18:57:26;12.45;;;5.22;;
45254;SDS011;30989;52.078;21.014;2023-04-01T19:00:24;9.65;;;5.35;;
45254;SDS011;30989;52.078;21.014;2023-04-01T19:05:44;8.50;;;4.93;;
45254;SDS011;30989;52.078;21.014;2023-04-01T19:08:20;8.68;;;4.90;;
45254;SDS011;30989;52.078;21.014;2023-04-01T19:11:01;10.07;;;4.97;;
45254;SDS011;30989;52.078;21.014;2023-04-01T19:13:55;10.00;;;5.70;;
45254;SDS011;30989;52.078;21.014;2023-04-01T19:27:37;11.17;;;6.40;;
45254;SDS011;30989;52.078;21.014;2023-04-01T19:33:20;12.40;;;6.20;;
45254;SDS011;30989;52.078;21.014;2023-04-01T19:36:07;11.02;;;5.70;;
45254;SDS011;30989;52.078;21.014;2023-04-01T19:49:28;9.23;;;5.45;;
45254;SDS011;30989;52.078;21.014;2023-04-01T19:57:42;13.85;;;7.35;;
45254;SDS011;30989;52.078;21.014;2023-04-01T20:08:06;9.25;;;5.82;;
45254;SDS011;30989;52.078;21.014;2023-04-01T20:13:57;11.97;;;6.80;;
45254;SDS011;30989;52.078;21.014;2023-04-01T20:16:06;10.85;;;6.35;;
45254;SDS011;30989;52.078;21.014;2023-04-01T20:18:35;10.07;;;6.18;;
45254;SDS011;30989;52.078;21.014;2023-04-01T20:21:16;9.77;;;5.63;;
45254;SDS011;30989;52.078;21.014;2023-04-01T20:24:22;8.57;;;4.63;;
45254;SDS011;30989;52.078;21.014;2023-04-01T20:26:44;11.05;;;6.10;;
45254;SDS011;30989;52.078;21.014;2023-04-01T20:32:37;10.52;;;6.13;;
45254;SDS011;30989;52.078;21.014;2023-04-01T20:46:16;8.27;;;5.13;;
45254;SDS011;30989;52.078;21.014;2023-04-01T20:51:30;11.60;;;5.18;;
45254;SDS011;30989;52.078;21.014;2023-04-01T21:11:08;10.90;;;6.68;;
45254;SDS011;30989;52.078;21.014;2023-04-01T21:16:20;10.02;;;5.45;;
45254;SDS011;30989;52.078;21.014;2023-04-01T21:19:03;9.90;;;5.30;;
45254;SDS011;30989;52.078;21.014;2023-04-01T21:27:15;9.50;;;5.60;;
45254;SDS011;30989;52.078;21.014;2023-04-01T21:32:41;5.83;;;3.10;;
45254;SDS011;30989;52.078;21.014;2023-04-01T21:44:43;9.27;;;4.35;;
45254;SDS011;30989;52.078;21.014;2023-04-01T21:47:35;11.27;;;4.80;;
45254;SDS011;30989;52.078;21.014;2023-04-01T22:01:22;9.55;;;5.20;;
45254;SDS011;30989;52.078;21.014;2023-04-01T22:07:23;10.10;;;5.03;;
45254;SDS011;30989;52.078;21.014;2023-04-01T22:12:46;8.13;;;3.97;;
45254;SDS011;30989;52.078;21.014;2023-04-01T22:18:32;8.90;;;4.57;;
45254;SDS011;30989;52.078;21.014;2023-04-01T22:23:39;9.38;;;4.15;;
45254;SDS011;30989;52.078;21.014;2023-04-01T22:26:32;8.50;;;4.50;;
45254;SDS011;30989;52.078;21.014;2023-04-01T22:29:07;6.43;;;3.45;;
45254;SDS011;30989;52.078;21.014;2023-04-01T22:40:08;12.07;;;5.35;;
45254;SDS011;30989;52.078;21.014;2023-04-01T22:42:42;7.07;;;3.47;;
45254;SDS011;30989;52.078;21.014;2023-04-01T22:50:50;7.30;;;3.63;;
45254;SDS011;30989;52.078;21.014;2023-04-01T22:58:54;7.65;;;3.78;;
45254;SDS011;30989;52.078;21.014;2023-04-01T23:01:44;9.95;;;4.70;;
45254;SDS011;30989;52.078;21.014;2023-04-01T23:04:16;10.90;;;5.60;;
45254;SDS011;30989;52.078;21.014;2023-04-01T23:06:48;9.52;;;5.30;;
45254;SDS011;30989;52.078;21.014;2023-04-01T23:12:00;10.63;;;5.97;;
45254;SDS011;30989;52.078;21.014;2023-04-01T23:14:37;9.35;;;5.43;;
45254;SDS011;30989;52.078;21.014;2023-04-01T23:20:10;7.00;;;3.90;;
45254;SDS011;30989;52.078;21.014;2023-04-01T23:23:05;10.30;;;5.10;;
45254;SDS011;30989;52.078;21.014;2023-04-01T23:26:06;8.82;;;4.20;;
45254;SDS011;30989;52.078;21.014;2023-04-01T23:31:33;9.27;;;4.63;;
45254;SDS011;30989;52.078;21.014;2023-04-01T23:36:37;7.75;;;3.90;;
45254;SDS011;30989;52.078;21.014;2023-04-01T23:39:08;8.80;;;4.65;;
45254;SDS011;30989;52.078;21.014;2023-04-01T23:42:06;6.88;;;3.97;;
45254;SDS011;30989;52.078;21.014;2023-04-01T23:44:37;7.43;;;3.83;;
45254;SDS011;30989;52.078;21.014;2023-04-01T23:47:05;7.55;;;3.85;;
45254;SDS011;30989;52.078;21.014;2023-04-01T23:49:55;6.65;;;3.72;;
45254;SDS011;30989;52.078;21.014;2023-04-01T23:52:31;8.48;;;5.00;;
45254;SDS011;30989;52.078;21.014;2023-04-01T23:55:03;11.45;;;5.90;;
45254;SDS011;30989;52.078;21.014;2023-04-01T23:57:30;9.52;;;5.07;;
